Time;durP1;ratioP1;P1;durP2;ratioP2;P2;SDS_P1;SDS_P2;PMS_P1;PMS_P2;Temp;Humidity;BMP_temperature;BMP_pressure;BME280_temperature;BME280_humidity;BME280_pressure;Samples;Min_cycle;Max_cycle;Signal;HPM_P1;HPM_P2
2021/03/13 00:00:10;;;;;;;14.65;0.38;;;7.10;99.90;;;;;;5036253;28;20484;-74
2021/03/13 00:02:36;;;;;;;13.95;1.35;;;7.10;99.90;;;;;;5035669;28;20029;-73
2021/03/13 00:05:02;;;;;;;23.25;2.05;;;7.10;99.90;;;;;;5035433;28;20048;-74
2021/03/13 00:07:28;;;;;;;11.65;0.68;;;7.20;99.90;;;;;;5035486;28;20029;-74
2021/03/13 00:09:53;;;;;;;16.08;1.15;;;7.20;99.90;;;;;;5034604;28;20052;-74
2021/03/13 00:12:19;;;;;;;12.48;0.73;;;7.30;99.90;;;;;;5035496;28;20397;-73
2021/03/13 00:14:47;;;;;;;16.88;1.38;;;7.20;99.90;;;;;;5029281;28;20038;-74
2021/03/13 00:17:12;;;;;;;7.35;0.55;;;7.20;99.90;;;;;;5041784;23;20098;-74
2021/03/13 00:19:38;;;;;;;6.18;1.13;;;7.20;99.90;;;;;;5075318;28;20024;-73
2021/03/13 00:22:03;;;;;;;16.35;1.00;;;7.30;99.90;;;;;;5075547;28;20120;-73
2021/03/13 00:24:29;;;;;;;11.30;1.02;;;7.20;99.90;;;;;;5074939;28;20031;-74
2021/03/13 00:26:55;;;;;;;10.80;1.17;;;7.20;99.90;;;;;;5075521;28;20031;-74
2021/03/13 00:29:20;;;;;;;13.25;0.80;;;7.30;99.90;;;;;;5075754;28;20036;-74
2021/03/13 00:31:46;;;;;;;13.35;0.93;;;7.30;99.90;;;;;;5075363;28;20047;-74
2021/03/13 00:34:12;;;;;;;12.98;0.80;;;7.30;99.90;;;;;;5073691;28;20052;-73
2021/03/13 00:36:37;;;;;;;11.13;1.63;;;7.20;99.90;;;;;;5075210;28;20099;-74
2021/03/13 00:39:05;;;;;;;16.85;1.98;;;7.30;99.90;;;;;;5075095;28;20020;-73
2021/03/13 00:41:31;;;;;;;10.95;0.82;;;7.30;99.90;;;;;;5073948;28;20028;-74
2021/03/13 00:43:56;;;;;;;12.13;1.55;;;7.30;99.90;;;;;;5074401;28;20017;-74
2021/03/13 00:46:22;;;;;;;12.00;1.25;;;7.30;99.90;;;;;;5074689;28;20025;-74
2021/03/13 00:48:48;;;;;;;6.93;0.88;;;7.30;99.90;;;;;;5089166;22;20016;-74
2021/03/13 00:51:14;;;;;;;6.63;0.85;;;7.30;99.90;;;;;;5074884;28;20036;-73
2021/03/13 00:53:39;;;;;;;10.07;0.38;;;7.30;99.90;;;;;;5075027;28;20027;-74
2021/03/13 00:56:05;;;;;;;8.80;0.65;;;7.30;99.90;;;;;;5074862;28;20096;-74
2021/03/13 00:58:30;;;;;;;16.23;1.20;;;7.20;99.90;;;;;;5074521;28;20033;-73
2021/03/13 01:00:56;;;;;;;13.27;0.75;;;7.20;99.90;;;;;;5075100;28;20033;-73
2021/03/13 01:03:21;;;;;;;13.40;1.65;;;7.30;99.90;;;;;;5056701;28;20074;-74
2021/03/13 01:05:47;;;;;;;10.43;1.15;;;7.30;99.90;;;;;;5074565;28;20535;-73
2021/03/13 01:08:12;;;;;;;4.93;0.28;;;7.30;99.90;;;;;;5074952;28;20096;-73
2021/03/13 01:10:39;;;;;;;10.65;0.70;;;7.30;99.90;;;;;;5056632;28;20020;-73
2021/03/13 01:13:06;;;;;;;4.22;0.30;;;7.30;99.90;;;;;;5116285;22;20067;-74
2021/03/13 01:15:32;;;;;;;4.22;0.75;;;7.20;99.90;;;;;;5056478;28;20017;-74
2021/03/13 01:17:58;;;;;;;8.30;0.08;;;7.20;99.90;;;;;;5074099;28;20025;-74
2021/03/13 01:20:25;;;;;;;6.07;0.77;;;7.10;99.90;;;;;;5071524;22;20159;-75
2021/03/13 01:22:51;;;;;;;9.57;0.50;;;7.00;99.90;;;;;;5075310;28;20032;-73
2021/03/13 01:25:18;;;;;;;7.30;0.30;;;7.00;99.90;;;;;;5073948;28;20028;-74
2021/03/13 01:27:43;;;;;;;9.57;0.10;;;6.90;99.90;;;;;;5056624;28;20029;-73
2021/03/13 01:30:15;;;;;;;4.80;0.20;;;6.90;99.90;;;;;;5074100;28;20021;-73
2021/03/13 01:32:42;;;;;;;1.50;0.10;;;6.80;99.90;;;;;;5056562;28;20044;-74
2021/03/13 01:35:09;;;;;;;3.92;0.70;;;6.80;99.90;;;;;;5113872;22;20500;-74
2021/03/13 01:37:35;;;;;;;9.75;1.23;;;6.80;99.90;;;;;;5074793;28;20065;-74
2021/03/13 01:40:01;;;;;;;8.73;0.40;;;6.80;99.90;;;;;;5074170;28;20055;-74
2021/03/13 01:42:27;;;;;;;6.25;0.52;;;6.80;99.90;;;;;;5056299;28;20020;-74
2021/03/13 01:44:53;;;;;;;7.03;0.50;;;6.70;99.90;;;;;;5074790;28;20407;-74
2021/03/13 01:47:27;;;;;;;7.38;0.55;;;6.70;99.90;;;;;;5073838;28;20070;-75
2021/03/13 01:49:54;;;;;;;4.38;0.52;;;6.70;99.90;;;;;;5056518;28;20502;-74
2021/03/13 01:52:23;;;;;;;6.22;0.60;;;6.70;99.90;;;;;;5073943;28;20429;-75
2021/03/13 01:54:48;;;;;;;6.18;0.68;;;6.60;99.90;;;;;;5074192;28;20024;-74
2021/03/13 01:57:17;;;;;;;5.30;0.10;;;6.60;99.90;;;;;;5096255;22;20047;-74
2021/03/13 01:59:44;;;;;;;7.55;0.40;;;6.60;99.90;;;;;;5092493;28;20405;-75
2021/03/13 02:02:11;;;;;;;6.00;0.57;;;6.50;99.90;;;;;;5094096;28;20050;-74
2021/03/13 02:04:37;;;;;;;3.47;0.20;;;6.50;99.90;;;;;;5094019;28;20415;-74
2021/03/13 02:07:22;;;;;;;6.38;0.50;;;6.40;99.90;;;;;;5094606;28;20030;-74
2021/03/13 02:10:14;;;;;;;1.75;0.38;;;6.40;99.90;;;;;;5106776;22;20032;-74
2021/03/13 02:12:56;;;;;;;1.02;0.20;;;6.40;99.90;;;;;;5068044;28;20035;-74
2021/03/13 02:15:54;;;;;;;1.50;0.10;;;6.30;99.90;;;;;;5073587;28;20536;-74
2021/03/13 02:18:41;;;;;;;4.00;0.50;;;6.30;99.90;;;;;;5064809;28;20108;-74
2021/03/13 02:21:30;;;;;;;7.70;0.43;;;6.30;99.90;;;;;;5073486;28;20036;-75
2021/03/13 02:24:01;;;;;;;5.93;0.40;;;6.60;99.90;;;;;;5055706;28;20021;-74
2021/03/13 02:26:39;;;;;;;4.18;0.70;;;6.30;99.90;;;;;;5055615;28;20024;-74
2021/03/13 02:29:26;;;;;;;6.57;1.08;;;6.30;99.90;;;;;;5073340;28;20020;-75
2021/03/13 02:31:56;;;;;;;8.70;1.05;;;6.30;99.90;;;;;;5073195;28;20455;-74
2021/03/13 02:34:28;;;;;;;6.75;1.45;;;6.30;99.90;;;;;;5073301;28;20031;-74
2021/03/13 02:36:56;;;;;;;6.95;1.70;;;6.30;99.90;;;;;;5055303;28;20024;-74
2021/03/13 02:39:27;;;;;;;4.67;2.10;;;6.30;99.90;;;;;;5073370;28;20029;-74
2021/03/13 02:41:57;;;;;;;5.13;1.23;;;6.30;99.90;;;;;;5102020;22;20346;-75
2021/03/13 02:44:23;;;;;;;8.18;1.40;;;6.30;99.90;;;;;;5093834;28;20081;-75
2021/03/13 02:46:50;;;;;;;6.30;1.30;;;6.30;99.90;;;;;;5093514;28;20024;-74
2021/03/13 02:49:17;;;;;;;3.20;1.27;;;6.30;99.90;;;;;;5097256;28;20020;-74
2021/03/13 02:51:44;;;;;;;4.10;1.00;;;6.30;99.90;;;;;;5097221;28;20020;-74
2021/03/13 02:54:11;;;;;;;7.57;1.73;;;6.20;99.90;;;;;;5097295;28;20032;-74
2021/03/13 02:56:39;;;;;;;5.35;1.23;;;6.20;99.90;;;;;;5096897;28;20020;-74
2021/03/13 02:59:06;;;;;;;4.97;0.63;;;6.20;99.90;;;;;;5097179;28;20387;-74
2021/03/13 03:01:33;;;;;;;7.80;1.40;;;6.20;99.90;;;;;;5106147;22;20040;-74
2021/03/13 03:04:01;;;;;;;6.13;1.27;;;6.30;99.90;;;;;;5076618;28;20532;-74
2021/03/13 03:06:27;;;;;;;3.80;0.68;;;6.30;99.90;;;;;;5076546;28;20511;-74
2021/03/13 03:08:56;;;;;;;4.88;0.75;;;6.20;99.90;;;;;;5058855;28;20399;-74
2021/03/13 03:11:23;;;;;;;3.25;0.50;;;6.20;99.90;;;;;;5076423;28;20024;-74
2021/03/13 03:13:50;;;;;;;7.15;0.77;;;6.30;99.90;;;;;;5076650;28;20103;-74
2021/03/13 03:16:17;;;;;;;4.43;0.98;;;6.30;99.90;;;;;;5058284;28;20030;-75
2021/03/13 03:18:44;;;;;;;7.28;0.43;;;6.30;99.90;;;;;;5091303;22;20055;-74
2021/03/13 03:21:14;;;;;;;7.03;1.40;;;6.30;99.90;;;;;;5076785;28;20028;-75
2021/03/13 03:23:41;;;;;;;2.80;0.80;;;6.20;99.90;;;;;;5088175;28;20470;-74
2021/03/13 03:26:06;;;;;;;4.05;0.35;;;6.30;99.90;;;;;;5097004;28;20027;-74
2021/03/13 03:28:32;;;;;;;4.35;0.47;;;6.30;99.90;;;;;;5096010;28;20379;-73
2021/03/13 03:30:58;;;;;;;5.00;0.40;;;6.40;99.90;;;;;;5096408;28;20020;-73
2021/03/13 03:33:24;;;;;;;3.03;0.63;;;6.30;99.90;;;;;;5096279;28;20020;-74
2021/03/13 03:35:50;;;;;;;8.55;0.40;;;6.30;99.90;;;;;;5096323;28;20027;-73
2021/03/13 03:38:17;;;;;;;4.25;0.75;;;6.30;99.90;;;;;;5095971;28;20020;-73
2021/03/13 03:40:44;;;;;;;6.97;0.80;;;6.40;99.90;;;;;;5095823;28;20032;-73
2021/03/13 03:43:13;;;;;;;0.98;0.40;;;6.40;99.90;;;;;;5077834;28;20024;-73
2021/03/13 03:45:41;;;;;;;4.10;0.60;;;8.90;99.90;;;;;;5077727;28;20016;-74
2021/03/13 03:48:12;;;;;;;2.37;0.10;;;6.50;99.90;;;;;;5095878;28;20027;-74
2021/03/13 03:50:40;;;;;;;8.50;0.98;;;6.50;99.90;;;;;;5077397;28;20327;-74
2021/03/13 03:53:23;;;;;;;3.53;0.45;;;6.50;99.90;;;;;;5095920;28;20016;-74
2021/03/13 03:55:52;;;;;;;8.65;1.95;;;6.50;99.90;;;;;;5095631;28;20024;-74
2021/03/13 03:58:33;;;;;;;3.80;0.30;;;6.50;99.90;;;;;;5076927;28;20486;-75
2021/03/13 04:01:00;;;;;;;4.20;0.40;;;6.50;99.90;;;;;;5126633;22;20046;-74
2021/03/13 04:03:28;;;;;;;3.28;0.10;;;6.50;99.90;;;;;;5116717;28;20469;-75
2021/03/13 04:05:55;;;;;;;4.10;0.20;;;6.50;99.90;;;;;;5116684;28;20469;-74
2021/03/13 04:08:22;;;;;;;4.65;0.20;;;6.50;99.90;;;;;;5116253;28;20390;-75
2021/03/13 04:10:50;;;;;;;7.95;1.15;;;6.60;99.90;;;;;;5116339;27;20023;-74
2021/03/13 04:13:18;;;;;;;4.93;0.65;;;6.60;99.90;;;;;;5116051;28;20467;-74
2021/03/13 04:15:47;;;;;;;4.72;0.30;;;6.60;99.90;;;;;;5115947;28;20474;-75
2021/03/13 04:18:14;;;;;;;6.82;0.98;;;6.70;99.90;;;;;;5115929;28;20020;-74
2021/03/13 04:20:41;;;;;;;2.67;0.35;;;6.60;99.90;;;;;;5115993;28;20038;-74
2021/03/13 04:23:07;;;;;;;8.13;0.35;;;6.70;99.90;;;;;;5115571;28;20037;-75
2021/03/13 04:25:35;;;;;;;5.88;0.10;;;6.70;99.90;;;;;;5115926;27;20424;-74
2021/03/13 04:28:01;;;;;;;5.05;0.47;;;6.70;99.90;;;;;;5114354;28;20023;-75
2021/03/13 04:30:27;;;;;;;3.53;0.30;;;6.70;99.90;;;;;;5115277;28;20019;-74
2021/03/13 04:32:56;;;;;;;1.65;0.20;;;6.70;99.90;;;;;;5116162;28;20481;-74
2021/03/13 04:35:23;;;;;;;;;;;6.70;99.90;;;;;;5116111;28;20020;-75
2021/03/13 04:37:50;;;;;;;2.78;0.10;;;6.80;99.90;;;;;;5115742;28;19904;-74
2021/03/13 04:40:16;;;;;;;6.97;0.40;;;6.80;99.90;;;;;;5114218;28;20027;-75
2021/03/13 04:42:46;;;;;;;7.85;0.28;;;6.80;99.90;;;;;;5114000;28;20474;-75
2021/03/13 04:45:13;;;;;;;4.60;0.60;;;6.80;99.90;;;;;;5115833;28;20054;-73
2021/03/13 04:47:44;;;;;;;4.50;0.17;;;6.90;99.90;;;;;;5115470;28;20030;-74
2021/03/13 04:50:12;;;;;;;6.32;0.15;;;7.00;99.90;;;;;;5115703;28;20024;-74
2021/03/13 04:52:38;;;;;;;5.18;0.47;;;7.00;99.90;;;;;;5114773;28;20024;-75
2021/03/13 04:55:04;;;;;;;5.55;0.80;;;7.00;99.90;;;;;;5115199;28;20028;-74
2021/03/13 04:57:29;;;;;;;4.00;0.65;;;7.10;99.90;;;;;;5113368;28;20508;-74
2021/03/13 04:59:55;;;;;;;5.25;0.63;;;7.10;99.90;;;;;;5114334;28;20039;-74
2021/03/13 05:02:20;;;;;;;5.68;0.30;;;7.10;99.90;;;;;;5114766;28;20019;-74
2021/03/13 05:04:46;;;;;;;2.83;0.17;;;7.10;99.90;;;;;;5113428;28;20008;-75
2021/03/13 05:07:11;;;;;;;1.15;0.17;;;7.10;99.90;;;;;;5113468;28;20073;-75
2021/03/13 05:09:37;;;;;;;4.05;0.28;;;7.10;99.90;;;;;;5114361;28;20024;-74
2021/03/13 05:12:03;;;;;;;2.88;0.63;;;7.10;99.90;;;;;;5112999;28;20490;-74
2021/03/13 05:14:28;;;;;;;4.75;0.15;;;7.00;99.90;;;;;;5113415;28;20058;-74
2021/03/13 05:16:54;;;;;;;3.80;0.50;;;7.00;99.90;;;;;;5115035;28;20420;-75
2021/03/13 05:19:20;;;;;;;3.90;0.40;;;7.00;99.90;;;;;;5113395;28;20118;-74
2021/03/13 05:21:45;;;;;;;2.90;0.10;;;7.10;99.90;;;;;;5114533;28;20039;-75
2021/03/13 05:24:11;;;;;;;1.83;0.22;;;7.10;99.90;;;;;;5114586;28;20022;-75
2021/03/13 05:26:36;;;;;;;2.00;0.30;;;7.20;99.90;;;;;;5112898;28;20420;-75
2021/03/13 05:29:03;;;;;;;3.55;0.08;;;7.20;99.90;;;;;;5114810;28;20037;-74
2021/03/13 05:31:28;;;;;;;4.75;0.30;;;7.20;99.90;;;;;;5031483;22;20046;-74
2021/03/13 05:33:54;;;;;;;1.75;0.00;;;7.10;99.90;;;;;;5014395;28;20029;-73
2021/03/13 05:36:19;;;;;;;1.63;0.00;;;7.20;99.90;;;;;;5014664;28;20014;-73
2021/03/13 05:38:45;;;;;;;1.85;0.00;;;7.30;99.90;;;;;;5014521;28;20057;-73
2021/03/13 05:41:10;;;;;;;1.55;0.03;;;7.30;99.90;;;;;;5029798;28;20485;-72
2021/03/13 05:43:38;;;;;;;1.13;0.00;;;7.30;99.90;;;;;;5014647;28;20021;-72
2021/03/13 05:46:06;;;;;;;4.85;0.30;;;7.30;99.90;;;;;;5013307;28;20025;-73
2021/03/13 05:48:34;;;;;;;5.15;0.25;;;7.30;99.90;;;;;;5014453;28;20029;-72
2021/03/13 05:51:01;;;;;;;6.03;0.10;;;7.30;99.90;;;;;;5014883;28;20034;-73
2021/03/13 05:53:28;;;;;;;0.20;0.00;;;7.30;99.90;;;;;;5013168;28;20021;-73
2021/03/13 05:55:54;;;;;;;4.72;0.10;;;7.30;99.90;;;;;;5014705;28;20596;-72
2021/03/13 05:58:22;;;;;;;1.45;0.00;;;7.20;99.90;;;;;;5012957;28;20018;-72
2021/03/13 06:00:47;;;;;;;3.22;0.28;;;7.20;99.90;;;;;;5014325;28;20057;-74
2021/03/13 06:03:14;;;;;;;4.20;0.43;;;7.20;99.90;;;;;;5013950;28;20022;-72
2021/03/13 06:05:40;;;;;;;3.60;0.43;;;7.20;99.90;;;;;;5014243;28;20026;-73
2021/03/13 06:08:09;;;;;;;3.03;0.13;;;7.20;99.90;;;;;;5032097;28;20053;-74
2021/03/13 06:10:34;;;;;;;2.15;0.00;;;7.10;99.90;;;;;;5032486;28;20029;-73
2021/03/13 06:13:00;;;;;;;3.67;0.00;;;7.10;99.90;;;;;;5034134;28;20072;-73
2021/03/13 06:15:26;;;;;;;2.58;0.32;;;7.10;99.90;;;;;;5033716;28;20412;-73
2021/03/13 06:17:52;;;;;;;3.60;0.25;;;7.10;99.90;;;;;;5032216;28;20032;-73
2021/03/13 06:20:36;;;;;;;2.50;0.00;;;7.10;99.90;;;;;;5031990;28;20060;-73
2021/03/13 06:23:07;;;;;;;3.38;0.38;;;7.10;99.90;;;;;;5037116;28;20025;-73
2021/03/13 06:25:37;;;;;;;0.93;0.25;;;7.10;99.90;;;;;;5037130;28;20029;-73
2021/03/13 06:28:20;;;;;;;3.25;0.03;;;7.10;99.90;;;;;;5035903;28;20028;-73
2021/03/13 06:30:50;;;;;;;9.82;0.30;;;7.20;99.90;;;;;;5037834;28;20447;-73
2021/03/13 06:33:21;;;;;;;5.28;0.40;;;7.20;99.90;;;;;;5037005;28;20022;-73
2021/03/13 06:35:47;;;;;;;3.83;0.32;;;7.20;99.90;;;;;;5037171;28;20029;-73
2021/03/13 06:38:15;;;;;;;2.47;0.00;;;7.10;99.90;;;;;;5037171;28;20031;-73
2021/03/13 06:40:42;;;;;;;5.55;0.10;;;7.20;99.90;;;;;;5076825;22;20399;-73
2021/03/13 06:43:21;;;;;;;4.00;0.00;;;7.10;99.90;;;;;;5078685;22;20948;-74
2021/03/13 06:45:54;;;;;;;5.90;0.60;;;7.10;99.90;;;;;;5133556;22;20102;-73
2021/03/13 06:48:33;;;;;;;0.82;0.00;;;7.10;99.90;;;;;;5059100;28;20395;-73
2021/03/13 06:51:19;;;;;;;4.28;0.17;;;7.10;99.90;;;;;;5039060;28;20116;-74
2021/03/13 06:53:58;;;;;;;8.35;0.15;;;7.10;99.90;;;;;;5060556;28;20021;-74
2021/03/13 06:56:26;;;;;;;4.43;0.10;;;7.10;99.90;;;;;;5089101;23;20060;-73
2021/03/13 06:58:51;;;;;;;5.20;0.65;;;7.20;99.90;;;;;;5076770;28;20024;-74
2021/03/13 07:01:29;;;;;;;6.18;0.20;;;7.20;99.90;;;;;;5056495;28;20033;-74
2021/03/13 07:03:55;;;;;;;5.35;0.32;;;7.10;99.90;;;;;;5056842;28;20022;-73
2021/03/13 07:06:21;;;;;;;4.95;0.60;;;7.20;99.90;;;;;;5055693;28;20037;-73
2021/03/13 07:08:48;;;;;;;6.38;0.43;;;7.20;99.90;;;;;;5069710;23;20055;-74
2021/03/13 07:11:21;;;;;;;18.55;1.38;;;7.20;99.90;;;;;;5056646;28;20025;-73
2021/03/13 07:13:55;;;;;;;11.40;0.68;;;7.20;99.90;;;;;;5055252;28;20033;-72
2021/03/13 07:16:56;;;;;;;9.07;0.57;;;7.20;99.90;;;;;;5055412;28;20475;-73
2021/03/13 07:19:22;;;;;;;8.13;0.63;;;7.20;99.90;;;;;;5014529;28;20029;-72
2021/03/13 07:21:48;;;;;;;7.82;0.75;;;7.30;99.90;;;;;;5047509;28;20419;-73
2021/03/13 07:24:13;;;;;;;4.60;0.35;;;7.30;99.90;;;;;;5054931;28;20028;-73
2021/03/13 07:26:41;;;;;;;11.50;0.70;;;7.30;99.90;;;;;;5055833;28;20029;-73
2021/03/13 07:29:09;;;;;;;12.50;0.50;;;7.30;99.90;;;;;;5055925;28;20116;-73
2021/03/13 07:31:39;;;;;;;8.07;0.60;;;7.30;99.90;;;;;;5055992;28;20056;-73
2021/03/13 07:34:10;;;;;;;7.20;0.28;;;7.40;99.90;;;;;;5055018;28;20028;-73
2021/03/13 07:36:38;;;;;;;5.20;0.10;;;7.40;99.90;;;;;;5055792;28;20078;-73
2021/03/13 07:39:15;;;;;;;9.13;0.10;;;7.40;99.90;;;;;;5056001;28;20021;-73
2021/03/13 07:41:54;;;;;;;8.07;0.45;;;7.50;99.90;;;;;;5054532;28;20029;-74
2021/03/13 07:44:19;;;;;;;28.90;1.17;;;7.50;99.90;;;;;;5055815;28;20078;-73
2021/03/13 07:46:47;;;;;;;13.98;1.08;;;7.50;99.90;;;;;;5054191;28;20408;-73
2021/03/13 07:49:13;;;;;;;9.65;0.63;;;7.60;99.90;;;;;;5073653;23;20040;-73
2021/03/13 07:51:48;;;;;;;26.25;1.35;;;7.60;99.90;;;;;;5058557;28;20039;-73
2021/03/13 07:54:14;;;;;;;13.18;1.77;;;7.60;99.90;;;;;;5076000;28;20070;-74
2021/03/13 07:56:45;;;;;;;11.30;1.02;;;7.60;99.90;;;;;;5075903;28;20032;-73
2021/03/13 07:59:31;;;;;;;3.88;0.32;;;7.70;99.90;;;;;;5076350;28;20020;-74
2021/03/13 08:01:56;;;;;;;4.38;0.68;;;7.60;99.90;;;;;;5075620;28;20021;-73
2021/03/13 08:04:43;;;;;;;16.88;3.50;;;7.60;99.90;;;;;;5075841;28;20033;-73
2021/03/13 08:07:09;;;;;;;14.50;1.75;;;7.50;99.90;;;;;;5057578;28;20020;-73
2021/03/13 08:09:44;;;;;;;19.30;1.58;;;7.60;99.90;;;;;;5057884;28;20031;-74
2021/03/13 08:12:11;;;;;;;12.75;1.88;;;7.60;99.90;;;;;;5057463;28;20386;-73
2021/03/13 08:14:37;;;;;;;9.00;1.38;;;7.60;99.90;;;;;;5070486;22;20077;-74
2021/03/13 08:17:11;;;;;;;7.28;0.80;;;7.70;99.90;;;;;;5073931;22;20507;-73
2021/03/13 08:19:44;;;;;;;10.07;1.02;;;7.70;99.90;;;;;;5095097;22;20044;-74
2021/03/13 08:22:23;;;;;;;12.90;0.68;;;7.70;99.90;;;;;;5095813;28;20032;-74
2021/03/13 08:24:53;;;;;;;;;;;7.70;99.90;;;;;;5095723;28;20031;-73
2021/03/13 08:27:34;;;;;;;13.90;1.95;;;7.80;99.90;;;;;;5122007;22;19921;-74
2021/03/13 08:30:01;;;;;;;9.88;0.30;;;7.70;99.90;;;;;;5075821;28;20483;-74
2021/03/13 08:32:58;;;;;;;14.73;1.50;;;7.80;99.90;;;;;;5057417;28;20025;-74
2021/03/13 08:35:35;;;;;;;16.38;1.60;;;7.80;99.90;;;;;;5056926;28;20490;-75
2021/03/13 08:38:02;;;;;;;16.33;0.80;;;7.80;99.90;;;;;;5074817;28;20395;-74
2021/03/13 08:40:28;;;;;;;15.48;0.88;;;7.80;99.90;;;;;;5056875;28;20024;-74
2021/03/13 08:42:54;;;;;;;24.33;2.40;;;7.70;99.90;;;;;;5077369;22;20075;-74
2021/03/13 08:45:20;;;;;;;10.48;0.50;;;7.80;99.90;;;;;;5073191;28;20523;-74
2021/03/13 08:47:51;;;;;;;16.77;1.77;;;7.80;99.90;;;;;;5093763;22;20388;-74
2021/03/13 08:50:43;;;;;;;12.10;0.30;;;7.90;99.90;;;;;;5074943;28;20031;-74
2021/03/13 08:53:28;;;;;;;12.15;0.30;;;7.90;99.90;;;;;;5068701;28;20048;-74
2021/03/13 08:55:54;;;;;;;8.88;0.47;;;7.90;99.00;;;;;;5074393;28;20025;-74
2021/03/13 08:58:43;;;;;;;6.70;0.38;;;7.90;99.90;;;;;;5071290;28;20078;-74
2021/03/13 09:01:21;;;;;;;14.18;1.42;;;7.90;97.90;;;;;;5074288;28;20494;-74
2021/03/13 09:03:49;;;;;;;13.80;1.40;;;8.00;97.10;;;;;;5074345;28;20028;-74
2021/03/13 09:06:16;;;;;;;13.73;1.13;;;8.00;96.80;;;;;;5074558;22;20107;-73
2021/03/13 09:08:42;;;;;;;15.63;1.60;;;8.00;97.60;;;;;;5031582;22;20076;-71
2021/03/13 09:11:08;;;;;;;15.88;0.88;;;8.20;96.60;;;;;;5033358;28;20037;-74
2021/03/13 09:13:33;;;;;;;8.93;0.85;;;7.90;96.90;;;;;;5048891;23;20088;-74
2021/03/13 09:15:59;;;;;;;18.15;1.25;;;7.90;98.00;;;;;;5075485;28;20032;-74
2021/03/13 09:18:25;;;;;;;20.42;1.45;;;7.90;99.20;;;;;;5075999;28;20103;-75
2021/03/13 09:20:51;;;;;;;15.82;1.10;;;8.00;99.90;;;;;;5095941;22;20049;-74
2021/03/13 09:23:16;;;;;;;14.55;1.13;;;8.00;99.90;;;;;;5070074;22;20407;-74
2021/03/13 09:25:42;;;;;;;17.38;1.52;;;8.00;99.90;;;;;;5054527;28;20029;-74
2021/03/13 09:28:08;;;;;;;14.23;1.90;;;8.00;99.90;;;;;;5054109;28;20028;-74
2021/03/13 09:30:35;;;;;;;13.68;0.85;;;8.10;99.90;;;;;;5053689;28;20029;-75
2021/03/13 09:33:01;;;;;;;10.57;0.88;;;8.20;98.20;;;;;;5036125;28;20044;-74
2021/03/13 09:35:28;;;;;;;13.40;1.45;;;8.20;95.40;;;;;;5054516;28;20432;-74
2021/03/13 09:37:54;;;;;;;14.77;0.98;;;8.20;95.00;;;;;;5093796;22;20099;-73
2021/03/13 09:40:23;;;;;;;9.23;0.70;;;8.20;92.80;;;;;;5053788;28;20079;-73
2021/03/13 09:42:49;;;;;;;10.73;0.98;;;8.20;91.30;;;;;;5035797;28;20044;-74
2021/03/13 09:45:25;;;;;;;8.63;1.27;;;8.20;92.10;;;;;;5054008;28;20025;-73
2021/03/13 09:47:58;;;;;;;14.30;1.33;;;8.30;91.60;;;;;;5035525;28;20018;-74
2021/03/13 09:50:27;;;;;;;15.68;1.58;;;8.30;91.30;;;;;;5035788;28;20151;-73
2021/03/13 09:52:52;;;;;;;15.63;1.52;;;8.30;91.20;;;;;;5053855;28;20021;-73
2021/03/13 09:55:21;;;;;;;13.45;2.42;;;8.20;90.90;;;;;;5036179;28;20028;-74
2021/03/13 09:57:54;;;;;;;;;;;8.30;90.00;;;;;;5083743;22;20147;-74
2021/03/13 10:00:22;;;;;;;12.23;1.48;;;8.30;88.00;;;;;;5093951;28;19919;-73
2021/03/13 10:02:54;;;;;;;8.25;0.10;;;8.50;84.00;;;;;;5088932;22;20068;-73
2021/03/13 10:05:27;;;;;;;16.08;0.65;;;8.70;83.30;;;;;;5082234;23;20097;-74
2021/03/13 10:07:53;;;;;;;12.05;0.77;;;8.70;83.60;;;;;;5079259;28;20021;-74
2021/03/13 10:10:24;;;;;;;10.10;0.32;;;8.80;83.20;;;;;;5073897;28;20036;-73
2021/03/13 10:13:00;;;;;;;7.85;0.45;;;8.80;81.30;;;;;;5073333;28;20031;-74
2021/03/13 10:15:30;;;;;;;5.28;0.50;;;8.80;79.30;;;;;;5085149;22;20479;-73
2021/03/13 10:18:09;;;;;;;8.95;0.30;;;8.80;80.50;;;;;;5090687;22;20124;-74
2021/03/13 10:23:15;;;;;;;12.60;0.98;;;9.00;80.40;;;;;;5012589;28;20050;-73
2021/03/13 10:25:42;;;;;;;8.32;0.65;;;9.00;79.70;;;;;;5014030;28;20022;-73
2021/03/13 10:28:14;;;;;;;12.63;0.37;;;9.10;82.90;;;;;;5013839;28;20088;-72
2021/03/13 10:33:14;;;;;;;7.55;0.10;;;9.10;80.20;;;;;;5033520;28;20045;-76
2021/03/13 10:35:40;;;;;;;12.27;0.13;;;9.00;79.90;;;;;;5032686;28;20037;-74
2021/03/13 10:38:08;;;;;;;6.50;1.25;;;9.00;84.00;;;;;;5032716;28;20053;-73
2021/03/13 10:40:44;;;;;;;19.50;0.85;;;9.00;84.20;;;;;;5032351;28;20073;-73
2021/03/13 10:43:24;;;;;;;6.32;0.10;;;9.00;83.70;;;;;;5032290;28;20014;-72
2021/03/13 10:45:59;;;;;;;12.88;0.98;;;9.00;82.30;;;;;;5033383;28;20021;-74
2021/03/13 10:48:27;;;;;;;11.88;0.63;;;9.10;83.30;;;;;;5031911;28;20030;-72
2021/03/13 10:50:56;;;;;;;13.50;1.42;;;9.00;81.00;;;;;;5031887;28;20412;-72
2021/03/13 10:53:39;;;;;;;14.40;0.90;;;9.10;83.10;;;;;;5033676;28;20025;-73
2021/03/13 10:56:12;;;;;;;6.75;0.75;;;9.00;79.30;;;;;;5033376;28;20029;-73
2021/03/13 10:58:45;;;;;;;15.73;1.10;;;9.00;80.70;;;;;;5033345;28;20017;-72
2021/03/13 11:01:12;;;;;;;15.13;0.80;;;9.00;82.50;;;;;;5033338;28;20025;-72
2021/03/13 11:03:38;;;;;;;5.95;0.20;;;9.00;80.40;;;;;;5033682;28;20017;-72
2021/03/13 11:06:04;;;;;;;10.02;0.82;;;9.00;80.50;;;;;;5032799;28;20159;-73
2021/03/13 11:08:30;;;;;;;9.80;1.00;;;9.00;78.30;;;;;;5033687;28;20075;-73
2021/03/13 11:10:57;;;;;;;6.70;0.20;;;8.90;79.40;;;;;;5035216;28;20112;-73
2021/03/13 11:13:24;;;;;;;11.48;0.50;;;8.80;79.40;;;;;;5035305;28;20476;-73
2021/03/13 11:15:50;;;;;;;5.70;0.20;;;8.80;81.10;;;;;;5036652;28;20026;-73
2021/03/13 11:18:16;;;;;;;10.23;0.35;;;8.80;81.60;;;;;;5035184;28;20036;-74
2021/03/13 11:20:46;;;;;;;3.63;0.47;;;8.80;79.90;;;;;;5035478;28;20049;-75
2021/03/13 11:23:13;;;;;;;16.65;0.90;;;9.00;80.40;;;;;;5036363;28;20499;-74
2021/03/13 11:25:41;;;;;;;5.72;0.60;;;8.70;80.40;;;;;;5035500;28;20095;-75
2021/03/13 11:28:10;;;;;;;3.50;0.05;;;8.70;83.10;;;;;;5036249;28;20022;-74
2021/03/13 11:30:36;;;;;;;8.38;0.45;;;8.80;83.60;;;;;;5037490;28;20033;-74
2021/03/13 11:33:03;;;;;;;7.90;0.80;;;8.80;86.30;;;;;;5037040;28;20079;-73
2021/03/13 11:35:29;;;;;;;10.82;0.98;;;8.80;86.40;;;;;;5035678;28;20034;-74
2021/03/13 11:37:55;;;;;;;8.50;0.43;;;8.80;86.70;;;;;;5036901;28;20105;-74
2021/03/13 11:40:22;;;;;;;7.40;0.30;;;8.80;84.00;;;;;;5036615;28;20539;-74
2021/03/13 11:42:51;;;;;;;4.43;0.25;;;8.70;84.70;;;;;;5036085;28;20049;-75
2021/03/13 11:45:18;;;;;;;4.68;0.20;;;8.80;85.10;;;;;;5036487;28;20017;-75
2021/03/13 11:47:43;;;;;;;2.22;0.00;;;8.90;85.00;;;;;;5036317;28;20471;-74
2021/03/13 11:50:15;;;;;;;5.75;1.13;;;9.20;83.30;;;;;;5036319;28;20109;-74
2021/03/13 11:52:41;;;;;;;10.40;1.05;;;9.50;85.10;;;;;;5034521;28;20018;-74
2021/03/13 11:55:08;;;;;;;8.57;1.00;;;9.50;83.10;;;;;;5035473;28;20013;-75
2021/03/13 11:57:35;;;;;;;3.85;0.20;;;9.70;81.00;;;;;;5035651;28;20495;-75
2021/03/13 12:00:01;;;;;;;8.65;0.50;;;9.90;81.20;;;;;;5034217;28;20057;-75
2021/03/13 12:02:26;;;;;;;6.90;0.13;;;10.00;82.30;;;;;;5034112;28;20102;-75
2021/03/13 12:04:52;;;;;;;9.70;0.25;;;10.00;77.60;;;;;;5035488;28;20026;-75
2021/03/13 12:07:18;;;;;;;8.82;0.10;;;10.20;77.70;;;;;;5036065;28;20018;-76
2021/03/13 12:09:44;;;;;;;5.72;0.10;;;10.20;75.70;;;;;;5036063;28;20018;-73
2021/03/13 12:12:11;;;;;;;3.65;0.00;;;10.10;76.40;;;;;;5034492;28;20075;-75
2021/03/13 12:14:40;;;;;;;7.78;0.47;;;10.00;74.80;;;;;;5035055;28;20029;-75
2021/03/13 12:17:07;;;;;;;9.50;0.43;;;9.80;75.50;;;;;;5034215;28;20042;-74
2021/03/13 12:19:33;;;;;;;3.00;0.05;;;9.60;78.50;;;;;;5033574;28;20108;-75
2021/03/13 12:22:00;;;;;;;3.75;0.28;;;9.40;84.40;;;;;;5034520;28;20507;-74
2021/03/13 12:24:26;;;;;;;8.10;0.55;;;9.10;89.60;;;;;;5035477;28;20026;-73
2021/03/13 12:26:51;;;;;;;2.10;0.00;;;8.70;88.70;;;;;;5035530;28;20376;-74
2021/03/13 12:29:17;;;;;;;9.98;0.52;;;8.60;90.20;;;;;;5035213;28;20025;-75
2021/03/13 12:31:43;;;;;;;3.00;0.10;;;8.50;90.60;;;;;;5035206;28;20038;-73
2021/03/13 12:34:09;;;;;;;4.43;0.10;;;8.60;90.10;;;;;;5033624;28;20032;-73
2021/03/13 12:36:34;;;;;;;4.07;0.45;;;8.70;88.30;;;;;;5035122;28;20040;-75
2021/03/13 12:39:00;;;;;;;2.88;0.00;;;8.70;88.40;;;;;;5035522;28;20472;-75
2021/03/13 12:41:26;;;;;;;2.78;0.20;;;8.80;88.30;;;;;;5067265;22;20194;-74
2021/03/13 12:43:52;;;;;;;5.93;0.32;;;9.00;89.80;;;;;;5054512;28;20025;-75
2021/03/13 12:46:18;;;;;;;3.00;0.40;;;9.10;89.40;;;;;;5037113;28;20023;-76
2021/03/13 12:48:45;;;;;;;5.78;0.45;;;9.20;89.10;;;;;;5059201;22;20119;-73
2021/03/13 12:51:11;;;;;;;5.07;0.13;;;9.30;88.50;;;;;;5034713;28;20025;-74
2021/03/13 12:53:44;;;;;;;3.20;0.40;;;9.30;89.60;;;;;;5034691;28;20025;-74
2021/03/13 12:56:10;;;;;;;12.60;0.90;;;9.20;91.60;;;;;;5016615;28;20030;-75
2021/03/13 12:58:37;;;;;;;9.13;0.00;;;8.80;94.70;;;;;;5016447;28;20550;-74
2021/03/13 13:01:06;;;;;;;6.88;0.65;;;8.50;95.50;;;;;;5034698;28;20048;-76
2021/03/13 13:03:31;;;;;;;5.40;0.10;;;8.40;99.90;;;;;;5034068;28;20018;-73
2021/03/13 13:06:00;;;;;;;7.57;1.17;;;8.40;99.60;;;;;;5034650;28;20108;-74
2021/03/13 13:08:26;;;;;;;;;;;8.50;94.00;;;;;;5034659;28;20026;-74